sensor_id;sensor_type;location;lat;lon;timestamp;temperature;humidity
23609;DHT22;11982;50.810;4.442;2023-02-16T00:00:20;6.30;99.90
23609;DHT22;11982;50.810;4.442;2023-02-16T00:02:46;6.20;99.90
23609;DHT22;11982;50.810;4.442;2023-02-16T00:07:52;6.00;99.90
23609;DHT22;11982;50.810;4.442;2023-02-16T00:10:18;6.10;99.90
23609;DHT22;11982;50.810;4.442;2023-02-16T00:12:44;6.10;99.90
23609;DHT22;11982;50.810;4.442;2023-02-16T00:15:28;6.20;99.90
23609;DHT22;11982;50.810;4.442;2023-02-16T00:17:54;6.10;99.90
23609;DHT22;11982;50.810;4.442;2023-02-16T00:20:21;5.90;99.90
23609;DHT22;11982;50.810;4.442;2023-02-16T00:22:47;5.90;99.90
23609;DHT22;11982;50.810;4.442;2023-02-16T00:25:12;6.00;99.90
23609;DHT22;11982;50.810;4.442;2023-02-16T00:27:38;6.00;99.90
23609;DHT22;11982;50.810;4.442;2023-02-16T00:30:15;5.90;99.90
23609;DHT22;11982;50.810;4.442;2023-02-16T00:32:41;5.90;99.90
23609;DHT22;11982;50.810;4.442;2023-02-16T00:35:15;5.90;99.90
23609;DHT22;11982;50.810;4.442;2023-02-16T00:37:41;5.90;99.90
23609;DHT22;11982;50.810;4.442;2023-02-16T00:40:08;5.80;99.90
23609;DHT22;11982;50.810;4.442;2023-02-16T00:42:34;6.00;99.90
23609;DHT22;11982;50.810;4.442;2023-02-16T00:45:00;5.90;99.90
23609;DHT22;11982;50.810;4.442;2023-02-16T00:47:39;6.00;99.90
23609;DHT22;11982;50.810;4.442;2023-02-16T00:50:18;6.10;99.90
23609;DHT22;11982;50.810;4.442;2023-02-16T00:52:45;6.20;99.90
23609;DHT22;11982;50.810;4.442;2023-02-16T00:55:14;6.20;99.90
23609;DHT22;11982;50.810;4.442;2023-02-16T01:00:18;6.10;99.90
23609;DHT22;11982;50.810;4.442;2023-02-16T01:02:47;6.00;99.90
23609;DHT22;11982;50.810;4.442;2023-02-16T01:05:13;5.90;99.90
23609;DHT22;11982;50.810;4.442;2023-02-16T01:07:39;5.70;99.90
23609;DHT22;11982;50.810;4.442;2023-02-16T01:10:24;5.80;99.90
23609;DHT22;11982;50.810;4.442;2023-02-16T01:13:08;5.70;99.90
23609;DHT22;11982;50.810;4.442;2023-02-16T01:15:35;5.70;99.90
23609;DHT22;11982;50.810;4.442;2023-02-16T01:18:00;5.60;99.90
23609;DHT22;11982;50.810;4.442;2023-02-16T01:20:27;5.50;99.90
23609;DHT22;11982;50.810;4.442;2023-02-16T01:22:53;5.50;99.90
23609;DHT22;11982;50.810;4.442;2023-02-16T01:25:19;5.50;99.90
23609;DHT22;11982;50.810;4.442;2023-02-16T01:27:44;5.50;99.90
23609;DHT22;11982;50.810;4.442;2023-02-16T01:30:17;5.40;99.90
23609;DHT22;11982;50.810;4.442;2023-02-16T01:32:43;5.40;99.90
23609;DHT22;11982;50.810;4.442;2023-02-16T01:35:12;5.50;99.90
23609;DHT22;11982;50.810;4.442;2023-02-16T01:37:37;5.50;99.90
23609;DHT22;11982;50.810;4.442;2023-02-16T01:40:03;5.60;99.90
23609;DHT22;11982;50.810;4.442;2023-02-16T01:45:03;5.70;99.90
23609;DHT22;11982;50.810;4.442;2023-02-16T01:47:43;5.80;99.90
23609;DHT22;11982;50.810;4.442;2023-02-16T01:50:22;5.90;99.90
23609;DHT22;11982;50.810;4.442;2023-02-16T01:52:57;6.00;99.90
23609;DHT22;11982;50.810;4.442;2023-02-16T01:55:36;6.00;99.90
23609;DHT22;11982;50.810;4.442;2023-02-16T02:03:34;6.20;99.90
23609;DHT22;11982;50.810;4.442;2023-02-16T02:06:21;6.30;99.90
23609;DHT22;11982;50.810;4.442;2023-02-16T02:09:34;6.30;99.90
23609;DHT22;11982;50.810;4.442;2023-02-16T02:12:21;6.30;99.90
23609;DHT22;11982;50.810;4.442;2023-02-16T02:14:48;6.30;99.90
23609;DHT22;11982;50.810;4.442;2023-02-16T02:17:17;6.30;99.90
23609;DHT22;11982;50.810;4.442;2023-02-16T02:23:18;6.50;99.90
23609;DHT22;11982;50.810;4.442;2023-02-16T02:28:25;6.40;99.90
23609;DHT22;11982;50.810;4.442;2023-02-16T02:31:11;6.50;99.90
23609;DHT22;11982;50.810;4.442;2023-02-16T02:36:41;6.50;99.90
23609;DHT22;11982;50.810;4.442;2023-02-16T02:44:47;6.60;99.90
23609;DHT22;11982;50.810;4.442;2023-02-16T02:47:13;6.50;99.90
23609;DHT22;11982;50.810;4.442;2023-02-16T02:49:39;6.60;99.90
23609;DHT22;11982;50.810;4.442;2023-02-16T02:52:06;6.60;99.90
23609;DHT22;11982;50.810;4.442;2023-02-16T02:54:37;6.60;99.90
23609;DHT22;11982;50.810;4.442;2023-02-16T02:57:29;6.50;99.90
23609;DHT22;11982;50.810;4.442;2023-02-16T03:00:20;6.50;99.90
23609;DHT22;11982;50.810;4.442;2023-02-16T03:03:19;6.50;99.90
23609;DHT22;11982;50.810;4.442;2023-02-16T03:08:35;6.40;99.90
23609;DHT22;11982;50.810;4.442;2023-02-16T03:11:08;6.40;99.90
23609;DHT22;11982;50.810;4.442;2023-02-16T03:14:00;6.30;99.90
23609;DHT22;11982;50.810;4.442;2023-02-16T03:17:06;6.30;99.90
23609;DHT22;11982;50.810;4.442;2023-02-16T03:19:54;6.40;99.90
23609;DHT22;11982;50.810;4.442;2023-02-16T03:22:39;6.50;99.90
23609;DHT22;11982;50.810;4.442;2023-02-16T03:25:25;6.60;99.90
23609;DHT22;11982;50.810;4.442;2023-02-16T03:28:12;6.60;99.90
23609;DHT22;11982;50.810;4.442;2023-02-16T03:30:57;6.70;99.90
23609;DHT22;11982;50.810;4.442;2023-02-16T03:33:26;6.80;99.90
23609;DHT22;11982;50.810;4.442;2023-02-16T03:35:53;6.70;99.90
23609;DHT22;11982;50.810;4.442;2023-02-16T03:38:20;6.90;99.90
23609;DHT22;11982;50.810;4.442;2023-02-16T03:40:48;6.90;99.90
23609;DHT22;11982;50.810;4.442;2023-02-16T03:43:14;6.80;99.90
23609;DHT22;11982;50.810;4.442;2023-02-16T03:45:41;6.70;99.90
23609;DHT22;11982;50.810;4.442;2023-02-16T03:48:07;6.70;99.90
23609;DHT22;11982;50.810;4.442;2023-02-16T03:50:33;6.70;99.90
23609;DHT22;11982;50.810;4.442;2023-02-16T03:52:59;6.60;99.90
23609;DHT22;11982;50.810;4.442;2023-02-16T03:55:40;6.60;99.90
23609;DHT22;11982;50.810;4.442;2023-02-16T03:58:08;6.70;99.90
23609;DHT22;11982;50.810;4.442;2023-02-16T04:00:35;6.60;99.90
23609;DHT22;11982;50.810;4.442;2023-02-16T04:03:02;6.90;99.90
23609;DHT22;11982;50.810;4.442;2023-02-16T04:05:28;6.90;99.90
23609;DHT22;11982;50.810;4.442;2023-02-16T04:07:53;7.10;99.90
23609;DHT22;11982;50.810;4.442;2023-02-16T04:10:19;7.10;99.90
23609;DHT22;11982;50.810;4.442;2023-02-16T04:12:45;7.20;99.90
23609;DHT22;11982;50.810;4.442;2023-02-16T04:15:17;7.00;99.90
23609;DHT22;11982;50.810;4.442;2023-02-16T04:17:43;7.00;99.90
23609;DHT22;11982;50.810;4.442;2023-02-16T04:20:12;7.00;99.90
23609;DHT22;11982;50.810;4.442;2023-02-16T04:22:38;7.00;99.90
23609;DHT22;11982;50.810;4.442;2023-02-16T04:25:05;7.10;99.90
23609;DHT22;11982;50.810;4.442;2023-02-16T04:27:30;7.00;99.90
23609;DHT22;11982;50.810;4.442;2023-02-16T04:29:56;7.10;99.90
23609;DHT22;11982;50.810;4.442;2023-02-16T04:32:22;7.30;99.90
23609;DHT22;11982;50.810;4.442;2023-02-16T04:34:47;7.30;99.90
23609;DHT22;11982;50.810;4.442;2023-02-16T04:37:13;7.30;99.90
23609;DHT22;11982;50.810;4.442;2023-02-16T04:39:39;7.30;99.90
23609;DHT22;11982;50.810;4.442;2023-02-16T04:42:05;7.20;99.90
23609;DHT22;11982;50.810;4.442;2023-02-16T04:44:30;7.10;99.90
23609;DHT22;11982;50.810;4.442;2023-02-16T04:46:56;7.00;99.90
23609;DHT22;11982;50.810;4.442;2023-02-16T04:49:21;7.10;99.90
23609;DHT22;11982;50.810;4.442;2023-02-16T04:51:47;7.20;99.90
23609;DHT22;11982;50.810;4.442;2023-02-16T04:54:13;7.10;99.90
23609;DHT22;11982;50.810;4.442;2023-02-16T04:56:39;7.20;99.90
23609;DHT22;11982;50.810;4.442;2023-02-16T04:59:05;7.20;99.90
23609;DHT22;11982;50.810;4.442;2023-02-16T05:01:30;7.20;99.90
23609;DHT22;11982;50.810;4.442;2023-02-16T05:03:56;7.10;99.90
23609;DHT22;11982;50.810;4.442;2023-02-16T05:06:22;7.20;99.90
23609;DHT22;11982;50.810;4.442;2023-02-16T05:08:47;7.20;99.90
23609;DHT22;11982;50.810;4.442;2023-02-16T05:11:13;7.20;99.90
23609;DHT22;11982;50.810;4.442;2023-02-16T05:13:58;7.20;99.90
23609;DHT22;11982;50.810;4.442;2023-02-16T05:16:43;7.30;99.90
23609;DHT22;11982;50.810;4.442;2023-02-16T05:19:09;7.30;99.90
23609;DHT22;11982;50.810;4.442;2023-02-16T05:21:35;7.20;99.90
23609;DHT22;11982;50.810;4.442;2023-02-16T05:24:06;7.30;99.90
23609;DHT22;11982;50.810;4.442;2023-02-16T05:26:35;7.20;99.90
23609;DHT22;11982;50.810;4.442;2023-02-16T05:29:01;7.10;99.90
23609;DHT22;11982;50.810;4.442;2023-02-16T05:31:27;7.10;99.90
23609;DHT22;11982;50.810;4.442;2023-02-16T05:33:53;7.10;99.90
23609;DHT22;11982;50.810;4.442;2023-02-16T05:36:19;7.20;99.90
23609;DHT22;11982;50.810;4.442;2023-02-16T05:38:45;7.20;99.90
23609;DHT22;11982;50.810;4.442;2023-02-16T05:41:11;7.30;99.90
23609;DHT22;11982;50.810;4.442;2023-02-16T05:43:49;7.30;99.90
23609;DHT22;11982;50.810;4.442;2023-02-16T05:46:15;7.30;99.90
23609;DHT22;11982;50.810;4.442;2023-02-16T05:48:40;7.30;99.90
23609;DHT22;11982;50.810;4.442;2023-02-16T05:51:06;7.40;99.90
23609;DHT22;11982;50.810;4.442;2023-02-16T05:53:32;7.30;99.90
23609;DHT22;11982;50.810;4.442;2023-02-16T05:55:57;7.30;99.90
23609;DHT22;11982;50.810;4.442;2023-02-16T05:58:23;7.20;99.90
23609;DHT22;11982;50.810;4.442;2023-02-16T06:00:48;7.20;99.90
23609;DHT22;11982;50.810;4.442;2023-02-16T06:03:14;7.20;99.90
23609;DHT22;11982;50.810;4.442;2023-02-16T06:05:40;7.20;99.90
23609;DHT22;11982;50.810;4.442;2023-02-16T06:08:05;7.30;99.90
23609;DHT22;11982;50.810;4.442;2023-02-16T06:10:32;7.30;99.90
23609;DHT22;11982;50.810;4.442;2023-02-16T06:12:58;7.30;99.90
23609;DHT22;11982;50.810;4.442;2023-02-16T06:15:23;7.40;99.90
23609;DHT22;11982;50.810;4.442;2023-02-16T06:17:49;7.40;99.90
23609;DHT22;11982;50.810;4.442;2023-02-16T06:20:15;7.40;99.90
23609;DHT22;11982;50.810;4.442;2023-02-16T06:22:40;7.30;99.90
23609;DHT22;11982;50.810;4.442;2023-02-16T06:25:06;7.30;99.90
23609;DHT22;11982;50.810;4.442;2023-02-16T06:27:32;7.30;99.90
23609;DHT22;11982;50.810;4.442;2023-02-16T06:29:57;7.40;99.90
23609;DHT22;11982;50.810;4.442;2023-02-16T06:32:23;7.50;99.90
23609;DHT22;11982;50.810;4.442;2023-02-16T06:34:48;7.40;99.90
23609;DHT22;11982;50.810;4.442;2023-02-16T06:37:14;7.40;99.90
23609;DHT22;11982;50.810;4.442;2023-02-16T06:39:40;7.40;99.90
23609;DHT22;11982;50.810;4.442;2023-02-16T06:42:05;7.40;99.90
23609;DHT22;11982;50.810;4.442;2023-02-16T06:44:31;7.40;99.90
23609;DHT22;11982;50.810;4.442;2023-02-16T06:46:57;7.30;99.90
23609;DHT22;11982;50.810;4.442;2023-02-16T06:49:22;7.50;99.90
23609;DHT22;11982;50.810;4.442;2023-02-16T06:51:49;7.50;99.90
23609;DHT22;11982;50.810;4.442;2023-02-16T06:54:15;7.50;99.90
23609;DHT22;11982;50.810;4.442;2023-02-16T06:56:41;7.50;99.90
23609;DHT22;11982;50.810;4.442;2023-02-16T06:59:07;7.50;99.90
23609;DHT22;11982;50.810;4.442;2023-02-16T07:01:32;7.50;99.90
23609;DHT22;11982;50.810;4.442;2023-02-16T07:03:58;7.50;99.90
23609;DHT22;11982;50.810;4.442;2023-02-16T07:06:26;7.40;99.90
23609;DHT22;11982;50.810;4.442;2023-02-16T07:08:52;7.60;99.90
23609;DHT22;11982;50.810;4.442;2023-02-16T07:11:18;7.60;99.90
23609;DHT22;11982;50.810;4.442;2023-02-16T07:13:44;7.60;99.90
23609;DHT22;11982;50.810;4.442;2023-02-16T07:16:11;7.60;99.90
23609;DHT22;11982;50.810;4.442;2023-02-16T07:18:37;7.60;99.90
23609;DHT22;11982;50.810;4.442;2023-02-16T07:21:03;7.60;99.90
23609;DHT22;11982;50.810;4.442;2023-02-16T07:23:29;7.50;99.90
23609;DHT22;11982;50.810;4.442;2023-02-16T07:25:54;7.60;99.90
23609;DHT22;11982;50.810;4.442;2023-02-16T07:28:20;7.80;99.90
23609;DHT22;11982;50.810;4.442;2023-02-16T07:30:45;7.90;99.90
23609;DHT22;11982;50.810;4.442;2023-02-16T07:33:11;7.90;99.90
23609;DHT22;11982;50.810;4.442;2023-02-16T07:35:38;7.90;99.90
23609;DHT22;11982;50.810;4.442;2023-02-16T07:38:04;7.90;99.90
23609;DHT22;11982;50.810;4.442;2023-02-16T07:40:30;7.90;99.90
23609;DHT22;11982;50.810;4.442;2023-02-16T07:43:00;8.00;99.90
23609;DHT22;11982;50.810;4.442;2023-02-16T07:45:26;8.00;99.90
23609;DHT22;11982;50.810;4.442;2023-02-16T07:47:52;7.90;99.90
23609;DHT22;11982;50.810;4.442;2023-02-16T07:50:18;8.00;99.90
23609;DHT22;11982;50.810;4.442;2023-02-16T07:52:43;8.00;99.90
23609;DHT22;11982;50.810;4.442;2023-02-16T07:55:10;8.00;99.90
23609;DHT22;11982;50.810;4.442;2023-02-16T07:57:37;8.00;99.90
23609;DHT22;11982;50.810;4.442;2023-02-16T08:00:04;8.00;99.90
23609;DHT22;11982;50.810;4.442;2023-02-16T08:02:32;8.10;99.90
23609;DHT22;11982;50.810;4.442;2023-02-16T08:04:59;8.10;99.90
23609;DHT22;11982;50.810;4.442;2023-02-16T08:07:25;8.10;99.90
23609;DHT22;11982;50.810;4.442;2023-02-16T08:09:51;8.10;99.90
23609;DHT22;11982;50.810;4.442;2023-02-16T08:12:17;8.30;99.90
23609;DHT22;11982;50.810;4.442;2023-02-16T08:14:43;8.40;99.90
23609;DHT22;11982;50.810;4.442;2023-02-16T08:17:11;8.50;99.90
23609;DHT22;11982;50.810;4.442;2023-02-16T08:19:37;8.40;99.90
23609;DHT22;11982;50.810;4.442;2023-02-16T08:22:03;8.50;99.90
23609;DHT22;11982;50.810;4.442;2023-02-16T08:24:30;8.40;99.90
23609;DHT22;11982;50.810;4.442;2023-02-16T08:26:55;8.30;99.90
23609;DHT22;11982;50.810;4.442;2023-02-16T08:29:22;8.40;99.90
23609;DHT22;11982;50.810;4.442;2023-02-16T08:31:48;8.50;99.90
23609;DHT22;11982;50.810;4.442;2023-02-16T08:34:16;8.40;99.90
23609;DHT22;11982;50.810;4.442;2023-02-16T08:36:44;8.40;99.90
23609;DHT22;11982;50.810;4.442;2023-02-16T08:39:15;8.30;99.90
23609;DHT22;11982;50.810;4.442;2023-02-16T08:41:43;8.30;99.90
23609;DHT22;11982;50.810;4.442;2023-02-16T08:44:09;8.40;99.90
23609;DHT22;11982;50.810;4.442;2023-02-16T08:46:36;8.50;99.90
23609;DHT22;11982;50.810;4.442;2023-02-16T08:49:04;8.50;99.90
23609;DHT22;11982;50.810;4.442;2023-02-16T08:51:33;8.60;99.90
23609;DHT22;11982;50.810;4.442;2023-02-16T08:53:59;8.60;99.90
23609;DHT22;11982;50.810;4.442;2023-02-16T08:56:26;8.60;99.90
23609;DHT22;11982;50.810;4.442;2023-02-16T08:58:54;8.50;99.90
23609;DHT22;11982;50.810;4.442;2023-02-16T09:01:20;8.50;99.90
23609;DHT22;11982;50.810;4.442;2023-02-16T09:03:46;8.50;99.90
23609;DHT22;11982;50.810;4.442;2023-02-16T09:06:14;8.40;99.90
23609;DHT22;11982;50.810;4.442;2023-02-16T09:08:40;8.30;99.90
23609;DHT22;11982;50.810;4.442;2023-02-16T09:11:13;8.30;99.90
23609;DHT22;11982;50.810;4.442;2023-02-16T09:13:40;8.30;99.90
23609;DHT22;11982;50.810;4.442;2023-02-16T09:16:09;8.30;99.90
23609;DHT22;11982;50.810;4.442;2023-02-16T09:18:37;8.30;99.90
23609;DHT22;11982;50.810;4.442;2023-02-16T09:21:17;8.30;99.90
23609;DHT22;11982;50.810;4.442;2023-02-16T09:23:45;8.30;99.90
23609;DHT22;11982;50.810;4.442;2023-02-16T09:26:23;8.50;99.90
23609;DHT22;11982;50.810;4.442;2023-02-16T09:28:50;8.60;99.90
23609;DHT22;11982;50.810;4.442;2023-02-16T09:31:26;8.70;99.90
23609;DHT22;11982;50.810;4.442;2023-02-16T09:36:27;8.60;99.90
23609;DHT22;11982;50.810;4.442;2023-02-16T09:38:53;8.50;99.90
23609;DHT22;11982;50.810;4.442;2023-02-16T09:47:15;8.10;99.90
23609;DHT22;11982;50.810;4.442;2023-02-16T09:49:44;8.20;99.90
23609;DHT22;11982;50.810;4.442;2023-02-16T09:54:55;8.20;99.90
23609;DHT22;11982;50.810;4.442;2023-02-16T09:57:39;8.40;99.90
23609;DHT22;11982;50.810;4.442;2023-02-16T10:00:27;8.40;99.90
23609;DHT22;11982;50.810;4.442;2023-02-16T10:05:50;8.50;99.90
23609;DHT22;11982;50.810;4.442;2023-02-16T10:08:28;8.60;99.90
23609;DHT22;11982;50.810;4.442;2023-02-16T10:14:30;8.70;99.90
23609;DHT22;11982;50.810;4.442;2023-02-16T10:19:42;8.70;99.90
23609;DHT22;11982;50.810;4.442;2023-02-16T10:22:27;8.80;99.90
23609;DHT22;11982;50.810;4.442;2023-02-16T10:25:03;9.30;99.90
23609;DHT22;11982;50.810;4.442;2023-02-16T10:27:39;9.40;99.90
23609;DHT22;11982;50.810;4.442;2023-02-16T10:30:20;9.40;99.90
23609;DHT22;11982;50.810;4.442;2023-02-16T10:40:54;9.70;99.90
23609;DHT22;11982;50.810;4.442;2023-02-16T10:45:59;10.00;99.90
23609;DHT22;11982;50.810;4.442;2023-02-16T10:48:26;10.20;99.90
23609;DHT22;11982;50.810;4.442;2023-02-16T10:51:05;10.20;99.90
23609;DHT22;11982;50.810;4.442;2023-02-16T10:53:51;10.40;99.90
23609;DHT22;11982;50.810;4.442;2023-02-16T10:59:44;10.90;99.90
23609;DHT22;11982;50.810;4.442;2023-02-16T11:02:50;11.20;99.90
23609;DHT22;11982;50.810;4.442;2023-02-16T11:05:36;11.30;99.90
23609;DHT22;11982;50.810;4.442;2023-02-16T11:08:03;11.30;99.90
23609;DHT22;11982;50.810;4.442;2023-02-16T11:10:50;11.50;99.90
23609;DHT22;11982;50.810;4.442;2023-02-16T11:13:30;11.60;99.90
23609;DHT22;11982;50.810;4.442;2023-02-16T11:16:04;11.80;99.90
23609;DHT22;11982;50.810;4.442;2023-02-16T11:20:58;12.10;99.90
23609;DHT22;11982;50.810;4.442;2023-02-16T11:23:39;11.90;99.90
23609;DHT22;11982;50.810;4.442;2023-02-16T11:28:42;11.70;99.90
23609;DHT22;11982;50.810;4.442;2023-02-16T11:31:10;11.50;99.90
23609;DHT22;11982;50.810;4.442;2023-02-16T11:33:37;11.70;99.90
23609;DHT22;11982;50.810;4.442;2023-02-16T11:39:06;12.10;99.90
23609;DHT22;11982;50.810;4.442;2023-02-16T11:41:34;12.00;99.90
23609;DHT22;11982;50.810;4.442;2023-02-16T11:44:01;11.70;99.90
23609;DHT22;11982;50.810;4.442;2023-02-16T11:46:29;11.90;99.90
23609;DHT22;11982;50.810;4.442;2023-02-16T11:51:52;12.40;99.90
23609;DHT22;11982;50.810;4.442;2023-02-16T11:54:18;12.50;99.90
23609;DHT22;11982;50.810;4.442;2023-02-16T11:57:04;12.30;99.90
23609;DHT22;11982;50.810;4.442;2023-02-16T11:59:35;12.40;99.90
23609;DHT22;11982;50.810;4.442;2023-02-16T12:04:46;11.90;99.90
23609;DHT22;11982;50.810;4.442;2023-02-16T12:07:42;12.10;99.90
23609;DHT22;11982;50.810;4.442;2023-02-16T12:10:25;12.10;99.90
23609;DHT22;11982;50.810;4.442;2023-02-16T12:15:52;12.90;99.90
23609;DHT22;11982;50.810;4.442;2023-02-16T12:22:08;12.90;99.90
23609;DHT22;11982;50.810;4.442;2023-02-16T12:27:41;12.30;99.90
23609;DHT22;11982;50.810;4.442;2023-02-16T12:30:24;12.20;99.90
23609;DHT22;11982;50.810;4.442;2023-02-16T12:33:17;12.20;99.90
23609;DHT22;11982;50.810;4.442;2023-02-16T12:38:55;12.30;99.90
23609;DHT22;11982;50.810;4.442;2023-02-16T12:41:47;12.20;99.90
23609;DHT22;11982;50.810;4.442;2023-02-16T12:44:36;12.30;99.90
23609;DHT22;11982;50.810;4.442;2023-02-16T12:47:05;12.50;99.90
23609;DHT22;11982;50.810;4.442;2023-02-16T12:55:41;12.90;99.90
23609;DHT22;11982;50.810;4.442;2023-02-16T12:58:24;12.80;99.90
23609;DHT22;11982;50.810;4.442;2023-02-16T13:00:54;12.90;99.90
23609;DHT22;11982;50.810;4.442;2023-02-16T13:09:21;12.70;99.90
23609;DHT22;11982;50.810;4.442;2023-02-16T13:12:00;12.80;99.90
23609;DHT22;11982;50.810;4.442;2023-02-16T13:14:31;12.70;99.90
23609;DHT22;11982;50.810;4.442;2023-02-16T13:17:07;12.80;99.90
23609;DHT22;11982;50.810;4.442;2023-02-16T13:19:35;12.80;99.90
23609;DHT22;11982;50.810;4.442;2023-02-16T13:34:16;13.00;99.90
23609;DHT22;11982;50.810;4.442;2023-02-16T13:45:11;12.70;99.90
23609;DHT22;11982;50.810;4.442;2023-02-16T13:47:40;12.70;99.90
23609;DHT22;11982;50.810;4.442;2023-02-16T13:50:28;12.70;99.90
23609;DHT22;11982;50.810;4.442;2023-02-16T13:52:57;12.80;99.90
23609;DHT22;11982;50.810;4.442;2023-02-16T13:55:37;12.80;99.90
23609;DHT22;11982;50.810;4.442;2023-02-16T13:58:24;12.80;99.90
23609;DHT22;11982;50.810;4.442;2023-02-16T14:00:52;12.80;99.90
23609;DHT22;11982;50.810;4.442;2023-02-16T14:05:51;12.90;99.90
23609;DHT22;11982;50.810;4.442;2023-02-16T14:08:23;12.80;99.90
23609;DHT22;11982;50.810;4.442;2023-02-16T14:13:27;12.50;99.90
23609;DHT22;11982;50.810;4.442;2023-02-16T14:15:55;12.50;99.90
23609;DHT22;11982;50.810;4.442;2023-02-16T14:18:34;12.40;99.90
23609;DHT22;11982;50.810;4.442;2023-02-16T14:21:05;12.40;99.90
23609;DHT22;11982;50.810;4.442;2023-02-16T14:23:32;12.40;99.90
23609;DHT22;11982;50.810;4.442;2023-02-16T14:26:05;12.30;99.90
23609;DHT22;11982;50.810;4.442;2023-02-16T14:31:00;12.40;99.90
23609;DHT22;11982;50.810;4.442;2023-02-16T14:34:35;12.40;99.90
23609;DHT22;11982;50.810;4.442;2023-02-16T14:37:09;12.50;99.90
23609;DHT22;11982;50.810;4.442;2023-02-16T14:39:36;12.50;99.90
23609;DHT22;11982;50.810;4.442;2023-02-16T14:42:06;12.60;99.90
23609;DHT22;11982;50.810;4.442;2023-02-16T14:45:09;12.60;99.90
23609;DHT22;11982;50.810;4.442;2023-02-16T14:50:32;12.70;99.90
23609;DHT22;11982;50.810;4.442;2023-02-16T14:59:31;12.80;99.90
23609;DHT22;11982;50.810;4.442;2023-02-16T15:01:56;12.80;99.90
23609;DHT22;11982;50.810;4.442;2023-02-16T15:04:32;12.80;99.90
23609;DHT22;11982;50.810;4.442;2023-02-16T15:07:01;12.80;99.90
23609;DHT22;11982;50.810;4.442;2023-02-16T15:09:30;12.80;99.90
23609;DHT22;11982;50.810;4.442;2023-02-16T15:11:58;12.80;99.90
23609;DHT22;11982;50.810;4.442;2023-02-16T15:15:05;12.80;99.90
23609;DHT22;11982;50.810;4.442;2023-02-16T15:17:44;12.70;99.90
23609;DHT22;11982;50.810;4.442;2023-02-16T15:22:50;12.70;99.90
23609;DHT22;11982;50.810;4.442;2023-02-16T15:25:32;12.70;99.90
23609;DHT22;11982;50.810;4.442;2023-02-16T15:28:00;12.70;99.90
23609;DHT22;11982;50.810;4.442;2023-02-16T15:30:41;12.70;99.90
23609;DHT22;11982;50.810;4.442;2023-02-16T15:35:57;12.40;99.90
23609;DHT22;11982;50.810;4.442;2023-02-16T15:38:27;12.30;99.90
23609;DHT22;11982;50.810;4.442;2023-02-16T15:40:59;12.20;99.90
23609;DHT22;11982;50.810;4.442;2023-02-16T15:43:36;12.20;99.90
23609;DHT22;11982;50.810;4.442;2023-02-16T15:46:06;12.00;99.90
23609;DHT22;11982;50.810;4.442;2023-02-16T15:48:37;11.90;99.90
23609;DHT22;11982;50.810;4.442;2023-02-16T15:51:20;11.70;99.90
23609;DHT22;11982;50.810;4.442;2023-02-16T15:53:49;11.60;99.90
23609;DHT22;11982;50.810;4.442;2023-02-16T15:56:39;11.40;99.90
23609;DHT22;11982;50.810;4.442;2023-02-16T15:59:32;11.30;99.90
23609;DHT22;11982;50.810;4.442;2023-02-16T16:02:13;11.20;99.90
23609;DHT22;11982;50.810;4.442;2023-02-16T16:04:50;11.00;99.90
23609;DHT22;11982;50.810;4.442;2023-02-16T16:07:26;10.90;99.90
23609;DHT22;11982;50.810;4.442;2023-02-16T16:09:52;10.80;99.90
23609;DHT22;11982;50.810;4.442;2023-02-16T16:12:18;10.80;99.90
23609;DHT22;11982;50.810;4.442;2023-02-16T16:14:57;10.80;99.90
23609;DHT22;11982;50.810;4.442;2023-02-16T16:17:31;10.80;99.90
23609;DHT22;11982;50.810;4.442;2023-02-16T16:23:22;10.70;99.90
23609;DHT22;11982;50.810;4.442;2023-02-16T16:25:48;10.70;99.90
23609;DHT22;11982;50.810;4.442;2023-02-16T16:31:15;10.60;99.90
23609;DHT22;11982;50.810;4.442;2023-02-16T16:34:04;10.70;99.90
23609;DHT22;11982;50.810;4.442;2023-02-16T16:36:52;10.60;99.90
23609;DHT22;11982;50.810;4.442;2023-02-16T16:39:21;10.60;99.90
23609;DHT22;11982;50.810;4.442;2023-02-16T16:49:55;10.40;99.90
23609;DHT22;11982;50.810;4.442;2023-02-16T16:52:35;10.40;99.90
23609;DHT22;11982;50.810;4.442;2023-02-16T16:55:21;10.40;99.90
23609;DHT22;11982;50.810;4.442;2023-02-16T17:00:19;10.30;99.90
23609;DHT22;11982;50.810;4.442;2023-02-16T17:02:45;10.30;99.90
23609;DHT22;11982;50.810;4.442;2023-02-16T17:05:11;10.30;99.90
23609;DHT22;11982;50.810;4.442;2023-02-16T17:07:37;10.30;99.90
23609;DHT22;11982;50.810;4.442;2023-02-16T17:10:03;10.30;99.90
23609;DHT22;11982;50.810;4.442;2023-02-16T17:12:29;10.30;99.90
23609;DHT22;11982;50.810;4.442;2023-02-16T17:14:55;10.30;99.90
23609;DHT22;11982;50.810;4.442;2023-02-16T17:17:21;10.30;99.90
23609;DHT22;11982;50.810;4.442;2023-02-16T17:19:48;10.30;99.90
23609;DHT22;11982;50.810;4.442;2023-02-16T17:22:17;10.30;99.90
23609;DHT22;11982;50.810;4.442;2023-02-16T17:24:44;10.30;99.90
23609;DHT22;11982;50.810;4.442;2023-02-16T17:27:11;10.30;99.90
23609;DHT22;11982;50.810;4.442;2023-02-16T17:29:37;10.30;99.90
23609;DHT22;11982;50.810;4.442;2023-02-16T17:32:04;10.30;99.90
23609;DHT22;11982;50.810;4.442;2023-02-16T17:34:30;10.30;99.90
23609;DHT22;11982;50.810;4.442;2023-02-16T17:36:57;10.30;99.90
23609;DHT22;11982;50.810;4.442;2023-02-16T17:39:24;10.30;99.90
23609;DHT22;11982;50.810;4.442;2023-02-16T17:41:50;10.30;99.90
23609;DHT22;11982;50.810;4.442;2023-02-16T17:44:16;10.30;99.90
23609;DHT22;11982;50.810;4.442;2023-02-16T17:46:41;10.30;99.90
23609;DHT22;11982;50.810;4.442;2023-02-16T17:49:09;10.40;99.90
23609;DHT22;11982;50.810;4.442;2023-02-16T17:51:36;10.50;99.90
23609;DHT22;11982;50.810;4.442;2023-02-16T17:54:03;10.50;99.90
23609;DHT22;11982;50.810;4.442;2023-02-16T17:56:31;10.50;99.90
23609;DHT22;11982;50.810;4.442;2023-02-16T17:58:57;10.50;99.90
23609;DHT22;11982;50.810;4.442;2023-02-16T18:01:23;10.50;99.90
23609;DHT22;11982;50.810;4.442;2023-02-16T18:03:49;10.60;99.90
23609;DHT22;11982;50.810;4.442;2023-02-16T18:06:18;10.60;99.90
23609;DHT22;11982;50.810;4.442;2023-02-16T18:08:44;10.60;99.90
23609;DHT22;11982;50.810;4.442;2023-02-16T18:11:10;10.60;99.90
23609;DHT22;11982;50.810;4.442;2023-02-16T18:13:36;10.60;99.90
23609;DHT22;11982;50.810;4.442;2023-02-16T18:16:02;10.60;99.90
23609;DHT22;11982;50.810;4.442;2023-02-16T18:18:28;10.50;99.90
23609;DHT22;11982;50.810;4.442;2023-02-16T18:20:55;10.50;99.90
23609;DHT22;11982;50.810;4.442;2023-02-16T18:23:20;10.50;99.90
23609;DHT22;11982;50.810;4.442;2023-02-16T18:25:46;10.50;99.90
23609;DHT22;11982;50.810;4.442;2023-02-16T18:28:14;10.40;99.90
23609;DHT22;11982;50.810;4.442;2023-02-16T18:30:43;10.50;99.90
23609;DHT22;11982;50.810;4.442;2023-02-16T18:33:08;10.40;99.90
23609;DHT22;11982;50.810;4.442;2023-02-16T18:35:36;10.30;99.90
23609;DHT22;11982;50.810;4.442;2023-02-16T18:38:02;10.30;99.90
23609;DHT22;11982;50.810;4.442;2023-02-16T18:40:29;10.30;99.90
23609;DHT22;11982;50.810;4.442;2023-02-16T18:42:54;10.30;99.90
23609;DHT22;11982;50.810;4.442;2023-02-16T18:45:21;10.20;99.90